createdAt,value
2017-10-06T00:01:26.445Z,4.23
2017-10-06T00:03:54.778Z,5.30
2017-10-06T00:06:23.094Z,4.23
2017-10-06T00:08:51.423Z,3.90
2017-10-06T00:11:19.735Z,4.53
2017-10-06T00:13:48.077Z,4.10
2017-10-06T00:16:16.389Z,3.57
2017-10-06T00:18:44.708Z,3.20
2017-10-06T00:21:13.818Z,3.33
2017-10-06T00:23:42.890Z,4.03
2017-10-06T00:26:12.028Z,3.53
2017-10-06T00:28:40.333Z,3.70
2017-10-06T00:31:09.422Z,4.50
2017-10-06T00:33:37.776Z,3.03
2017-10-06T00:36:06.101Z,2.43
2017-10-06T00:38:34.458Z,3.90
2017-10-06T00:41:02.788Z,3.00
2017-10-06T00:43:31.865Z,3.40
2017-10-06T00:46:00.965Z,3.33
2017-10-06T00:48:30.051Z,3.73
2017-10-06T00:50:58.368Z,2.50
2017-10-06T00:53:26.686Z,2.30
2017-10-06T00:55:55.003Z,2.63
2017-10-06T00:58:24.089Z,3.47
2017-10-06T01:00:53.161Z,3.50
2017-10-06T01:03:21.475Z,3.03
2017-10-06T01:05:50.559Z,4.20
2017-10-06T01:08:19.674Z,3.23
2017-10-06T01:10:48.742Z,3.60
2017-10-06T01:13:17.850Z,2.70
2017-10-06T01:15:46.936Z,2.90
2017-10-06T01:18:16.019Z,2.90
2017-10-06T01:20:44.334Z,3.60
2017-10-06T01:23:12.639Z,3.00
2017-10-06T01:25:40.965Z,2.90
2017-10-06T01:28:10.044Z,4.03
2017-10-06T01:30:38.362Z,2.33
2017-10-06T01:33:06.673Z,2.43
2017-10-06T01:35:35.018Z,3.33
2017-10-06T01:38:03.327Z,2.60
2017-10-06T01:40:31.685Z,2.93
2017-10-06T01:43:00.007Z,2.40
2017-10-06T01:45:28.326Z,3.27
2017-10-06T01:47:56.645Z,2.87
2017-10-06T01:50:24.959Z,2.80
2017-10-06T01:52:54.042Z,2.67
2017-10-06T01:55:22.366Z,2.60
2017-10-06T01:57:50.697Z,2.80
2017-10-06T02:00:19.021Z,2.50
2017-10-06T02:02:47.350Z,2.80
2017-10-06T02:05:15.662Z,3.50
2017-10-06T02:07:43.982Z,3.00
2017-10-06T02:10:12.289Z,3.20
2017-10-06T02:12:40.635Z,2.37
2017-10-06T02:15:08.953Z,2.77
2017-10-06T02:17:38.082Z,3.50
2017-10-06T02:20:06.432Z,2.63
2017-10-06T02:22:35.521Z,3.17
2017-10-06T02:25:04.613Z,2.97
2017-10-06T02:27:33.708Z,2.90
2017-10-06T02:30:02.798Z,3.33
2017-10-06T02:32:31.123Z,2.57
2017-10-06T02:35:07.335Z,2.97
2017-10-06T02:37:35.645Z,2.57
2017-10-06T02:40:03.972Z,4.13
2017-10-06T02:42:32.297Z,3.30
2017-10-06T02:45:00.629Z,3.17
2017-10-06T02:47:28.957Z,2.80
2017-10-06T02:49:57.271Z,2.77
2017-10-06T02:52:25.598Z,2.70
2017-10-06T02:54:54.687Z,3.40
2017-10-06T02:57:23.773Z,3.00
2017-10-06T02:59:52.861Z,3.20
2017-10-06T03:02:21.203Z,3.23
2017-10-06T03:04:49.522Z,2.80
2017-10-06T03:07:17.827Z,2.93
2017-10-06T03:09:46.151Z,2.83
2017-10-06T03:12:14.470Z,2.43
2017-10-06T03:14:43.562Z,3.07
2017-10-06T03:17:12.700Z,3.47
2017-10-06T03:19:41.019Z,2.60
2017-10-06T03:22:09.321Z,3.20
2017-10-06T03:24:38.422Z,3.10
2017-10-06T03:27:06.717Z,3.10
2017-10-06T03:29:35.021Z,2.30
2017-10-06T03:32:03.350Z,3.33
2017-10-06T03:34:32.422Z,2.43
2017-10-06T03:37:00.739Z,3.23
2017-10-06T03:39:29.067Z,3.03
2017-10-06T03:41:57.377Z,3.53
2017-10-06T03:44:26.453Z,3.33
2017-10-06T03:46:54.796Z,3.10
2017-10-06T03:49:23.114Z,3.03
2017-10-06T03:51:52.197Z,3.00
2017-10-06T03:54:20.513Z,2.70
2017-10-06T03:56:48.830Z,2.90
2017-10-06T03:59:17.142Z,3.00
2017-10-06T04:01:46.222Z,3.40
2017-10-06T04:04:14.538Z,3.37
2017-10-06T04:06:42.851Z,3.00
2017-10-06T04:09:11.190Z,2.90
2017-10-06T04:11:39.513Z,2.70
2017-10-06T04:14:07.834Z,2.47
2017-10-06T04:16:36.159Z,3.20
2017-10-06T04:19:04.474Z,2.50
2017-10-06T04:21:32.811Z,3.30
2017-10-06T04:24:01.115Z,3.13
2017-10-06T04:26:30.221Z,4.30
2017-10-06T04:28:59.309Z,2.67
2017-10-06T04:31:27.632Z,2.40
2017-10-06T04:33:55.978Z,2.53
2017-10-06T04:36:25.087Z,3.13
2017-10-06T04:38:53.406Z,2.90
2017-10-06T04:41:21.721Z,2.50
2017-10-06T04:43:50.040Z,3.30
2017-10-06T04:46:18.357Z,2.97
2017-10-06T04:48:46.677Z,3.30
2017-10-06T04:51:14.989Z,2.10
2017-10-06T04:53:43.307Z,2.90
2017-10-06T04:56:11.654Z,3.07
2017-10-06T04:58:40.002Z,2.80
2017-10-06T05:01:08.350Z,3.90
2017-10-06T05:03:37.433Z,2.87
2017-10-06T05:06:05.772Z,2.87
2017-10-06T05:08:34.090Z,3.73
2017-10-06T05:11:02.413Z,2.77
2017-10-06T05:13:30.775Z,3.20
2017-10-06T05:15:59.105Z,3.53
2017-10-06T05:18:27.498Z,3.10
2017-10-06T05:20:55.857Z,3.63
2017-10-06T05:23:24.178Z,2.73
2017-10-06T05:25:53.254Z,2.83
2017-10-06T05:28:21.586Z,2.70
2017-10-06T05:30:49.912Z,2.63
2017-10-06T05:33:19.014Z,2.87
2017-10-06T05:35:48.095Z,3.53
2017-10-06T05:38:16.420Z,3.53
2017-10-06T05:40:44.731Z,3.80
2017-10-06T05:43:13.068Z,3.23
2017-10-06T05:45:41.379Z,2.63
2017-10-06T05:48:09.694Z,3.70
2017-10-06T05:50:38.790Z,3.10
2017-10-06T05:53:07.874Z,3.30
2017-10-06T05:55:36.194Z,3.17
2017-10-06T05:58:04.532Z,3.27
2017-10-06T06:00:32.858Z,4.37
2017-10-06T06:05:35.749Z,2.90
2017-10-06T06:08:04.054Z,4.10
2017-10-06T06:10:32.393Z,3.47
2017-10-06T06:13:00.726Z,4.03
2017-10-06T06:15:29.037Z,3.73
2017-10-06T06:17:58.130Z,3.50
2017-10-06T06:20:27.207Z,2.90
2017-10-06T06:22:55.535Z,3.47
2017-10-06T06:25:23.849Z,2.73
2017-10-06T06:27:52.162Z,3.70
2017-10-06T06:30:20.490Z,3.90
2017-10-06T06:32:48.836Z,3.73
2017-10-06T06:35:17.146Z,2.47
2017-10-06T06:37:45.450Z,3.63
2017-10-06T06:40:13.777Z,3.37
2017-10-06T06:42:42.095Z,2.97
2017-10-06T06:45:10.418Z,2.60
2017-10-06T06:47:38.731Z,3.10
2017-10-06T06:50:07.071Z,3.00
2017-10-06T06:52:35.382Z,3.40
2017-10-06T06:55:03.726Z,3.70
2017-10-06T06:57:32.037Z,3.30
2017-10-06T07:00:00.402Z,3.00
2017-10-06T07:02:28.718Z,2.30
2017-10-06T07:04:57.053Z,3.47
2017-10-06T07:07:25.384Z,2.30
2017-10-06T07:09:53.741Z,4.13
2017-10-06T07:12:22.047Z,3.67
2017-10-06T07:14:51.114Z,3.50
2017-10-06T07:17:19.437Z,3.10
2017-10-06T07:19:47.753Z,2.53
2017-10-06T07:22:16.105Z,2.70
2017-10-06T07:24:44.413Z,2.80
2017-10-06T07:27:12.720Z,3.60
2017-10-06T07:29:41.038Z,4.27
2017-10-06T07:32:09.905Z,3.03
2017-10-06T07:34:38.990Z,2.40
2017-10-06T07:37:08.056Z,3.10
2017-10-06T07:39:36.377Z,3.50
2017-10-06T07:42:05.449Z,3.13
2017-10-06T07:44:33.786Z,3.33
2017-10-06T07:47:02.106Z,2.53
2017-10-06T07:49:30.418Z,2.83
2017-10-06T07:51:58.733Z,3.60
2017-10-06T07:54:27.044Z,3.60
2017-10-06T07:56:56.130Z,2.73
2017-10-06T07:59:24.438Z,3.33
2017-10-06T08:01:52.756Z,2.40
2017-10-06T08:04:21.061Z,4.80
2017-10-06T08:06:49.417Z,2.30
2017-10-06T08:09:17.730Z,3.37
2017-10-06T08:11:46.805Z,2.87
2017-10-06T08:14:15.134Z,2.30
2017-10-06T08:16:43.440Z,2.60
2017-10-06T08:19:11.758Z,3.30
2017-10-06T08:21:40.834Z,2.70
2017-10-06T08:24:09.145Z,2.60
2017-10-06T08:26:38.227Z,2.60
2017-10-06T08:29:07.348Z,2.63
2017-10-06T08:31:35.650Z,2.97
2017-10-06T08:34:04.731Z,2.73
2017-10-06T08:36:33.062Z,3.40
2017-10-06T08:39:01.389Z,3.20
2017-10-06T08:41:29.701Z,2.10
2017-10-06T08:43:58.015Z,2.20
2017-10-06T08:46:27.110Z,2.20
2017-10-06T08:48:56.189Z,2.13
2017-10-06T08:51:25.295Z,3.20
2017-10-06T08:53:54.375Z,2.40
2017-10-06T08:56:22.682Z,2.83
2017-10-06T08:58:51.004Z,2.60
2017-10-06T09:01:19.353Z,2.60
2017-10-06T09:03:47.694Z,2.53
2017-10-06T09:06:16.013Z,2.20
2017-10-06T09:08:44.342Z,2.67
2017-10-06T09:11:13.418Z,2.07
2017-10-06T09:13:41.729Z,2.13
2017-10-06T09:16:10.794Z,2.30
2017-10-06T09:18:39.110Z,2.43
2017-10-06T09:21:07.430Z,2.47
2017-10-06T09:23:35.737Z,1.70
2017-10-06T09:26:04.058Z,3.00
2017-10-06T09:28:32.398Z,2.50
2017-10-06T09:31:01.489Z,2.97
2017-10-06T09:33:30.567Z,2.27
2017-10-06T09:35:58.902Z,2.53
2017-10-06T09:38:27.206Z,2.30
2017-10-06T09:40:55.540Z,2.00
2017-10-06T09:43:23.851Z,2.07
2017-10-06T09:45:52.153Z,2.43
2017-10-06T09:48:20.538Z,2.70
2017-10-06T09:50:48.852Z,2.30
2017-10-06T09:53:17.179Z,2.30
2017-10-06T09:55:45.494Z,2.47
2017-10-06T09:58:14.574Z,2.57
2017-10-06T10:00:42.901Z,2.20
2017-10-06T10:03:11.242Z,2.20
2017-10-06T10:05:40.310Z,1.97
2017-10-06T10:08:08.618Z,2.47
2017-10-06T10:10:37.708Z,2.43
2017-10-06T10:13:06.795Z,2.60
2017-10-06T10:15:35.882Z,2.73
2017-10-06T10:18:04.200Z,1.97
2017-10-06T10:20:32.513Z,1.77
2017-10-06T10:23:00.817Z,2.37
2017-10-06T10:25:29.162Z,2.70
2017-10-06T10:27:57.482Z,2.13
2017-10-06T10:30:26.568Z,2.23
2017-10-06T10:32:54.881Z,1.97
2017-10-06T10:35:23.198Z,2.10
2017-10-06T10:37:51.540Z,2.60
2017-10-06T10:40:19.872Z,2.20
2017-10-06T10:42:48.965Z,2.37
2017-10-06T10:45:17.284Z,2.63
2017-10-06T10:47:45.623Z,3.17
2017-10-06T10:50:13.947Z,2.50
2017-10-06T10:52:42.258Z,2.60
2017-10-06T10:55:10.588Z,2.30
2017-10-06T10:57:39.654Z,2.37
2017-10-06T11:00:07.978Z,2.53
2017-10-06T11:02:36.282Z,2.10
2017-10-06T11:05:04.598Z,2.50
2017-10-06T11:07:33.674Z,2.60
2017-10-06T11:10:02.003Z,2.50
2017-10-06T11:12:30.305Z,2.30
2017-10-06T11:14:58.642Z,3.10
2017-10-06T11:17:26.962Z,2.30
2017-10-06T11:19:55.270Z,2.17
2017-10-06T11:22:23.605Z,2.30
2017-10-06T11:24:51.923Z,2.03
2017-10-06T11:27:20.238Z,2.40
2017-10-06T11:29:48.554Z,2.00
2017-10-06T11:32:16.926Z,2.20
2017-10-06T11:34:45.234Z,2.37
2017-10-06T11:37:13.577Z,2.40
2017-10-06T11:39:41.895Z,2.40
2017-10-06T11:42:10.201Z,3.30
2017-10-06T11:44:38.525Z,2.23
2017-10-06T11:47:06.840Z,2.00
2017-10-06T11:49:35.936Z,1.83
2017-10-06T11:52:04.246Z,2.33
2017-10-06T11:54:32.576Z,2.57
2017-10-06T11:57:00.920Z,2.50
2017-10-06T11:59:29.834Z,2.40
2017-10-06T12:01:58.138Z,2.50
2017-10-06T12:04:27.246Z,2.73
2017-10-06T12:06:55.561Z,2.20
2017-10-06T12:09:23.869Z,2.30
2017-10-06T12:11:52.195Z,2.40
2017-10-06T12:14:20.515Z,2.97
2017-10-06T12:16:48.841Z,3.20
2017-10-06T12:19:17.143Z,2.63
2017-10-06T12:21:45.461Z,2.83
2017-10-06T12:24:13.779Z,3.40
2017-10-06T12:26:42.130Z,2.50
2017-10-06T12:29:11.254Z,3.90
2017-10-06T12:31:39.591Z,2.80
2017-10-06T12:34:07.914Z,2.47
2017-10-06T12:36:36.230Z,3.13
2017-10-06T12:39:04.571Z,2.30
2017-10-06T12:41:32.883Z,2.70
2017-10-06T12:44:01.193Z,3.63
2017-10-06T12:46:30.281Z,3.50
2017-10-06T12:48:59.403Z,3.63
2017-10-06T12:51:27.749Z,3.33
2017-10-06T12:53:56.834Z,3.90
2017-10-06T12:56:25.154Z,4.40
2017-10-06T12:58:53.469Z,3.00
2017-10-06T13:01:21.799Z,2.90
2017-10-06T13:03:50.101Z,2.23
2017-10-06T13:06:18.429Z,2.30
2017-10-06T13:08:46.742Z,2.20
2017-10-06T13:11:15.061Z,2.37
2017-10-06T13:13:43.369Z,1.83
2017-10-06T13:16:12.465Z,1.63
2017-10-06T13:18:42.533Z,2.07
2017-10-06T13:21:10.840Z,1.60
2017-10-06T13:23:39.154Z,1.40
2017-10-06T13:26:07.457Z,1.80
2017-10-06T13:28:35.774Z,1.57
2017-10-06T13:31:04.100Z,1.70
2017-10-06T13:33:32.426Z,1.83
2017-10-06T13:36:00.729Z,1.70
2017-10-06T13:38:29.802Z,1.57
2017-10-06T13:40:58.110Z,1.27
2017-10-06T13:43:26.421Z,1.57
2017-10-06T13:45:54.729Z,1.50
2017-10-06T13:48:23.139Z,2.57
2017-10-06T13:50:52.218Z,2.30
2017-10-06T13:53:20.533Z,1.63
2017-10-06T13:55:48.868Z,1.80
2017-10-06T13:58:17.170Z,1.80
2017-10-06T14:00:46.255Z,2.40
2017-10-06T14:03:15.332Z,2.33
2017-10-06T14:05:43.667Z,1.63
2017-10-06T14:08:11.982Z,2.50
2017-10-06T14:10:40.305Z,2.33
2017-10-06T14:13:08.645Z,2.20
2017-10-06T14:15:37.753Z,1.40
2017-10-06T14:18:06.834Z,1.33
2017-10-06T14:20:35.144Z,0.93
2017-10-06T14:23:03.458Z,2.37
2017-10-06T14:25:31.779Z,1.57
2017-10-06T14:28:00.865Z,1.97
2017-10-06T14:30:29.164Z,1.80
2017-10-06T14:32:57.518Z,1.97
2017-10-06T14:35:25.829Z,1.67
2017-10-06T14:37:54.184Z,1.40
2017-10-06T14:40:23.265Z,2.40
2017-10-06T14:42:51.578Z,1.70
2017-10-06T14:45:19.889Z,2.80
2017-10-06T14:47:48.201Z,2.70
2017-10-06T14:50:16.510Z,2.73
2017-10-06T14:52:44.841Z,2.20
2017-10-06T14:55:13.421Z,2.20
2017-10-06T14:57:41.726Z,2.33
2017-10-06T15:00:10.809Z,2.20
2017-10-06T15:02:39.106Z,2.23
2017-10-06T15:05:08.189Z,2.17
2017-10-06T15:07:36.489Z,2.40
2017-10-06T15:10:04.797Z,2.20
2017-10-06T15:12:33.363Z,3.00
2017-10-06T15:15:01.698Z,1.87
2017-10-06T15:17:30.029Z,2.10
2017-10-06T15:19:58.329Z,2.43
2017-10-06T15:22:26.682Z,2.50
2017-10-06T15:24:54.985Z,1.83
2017-10-06T15:27:23.301Z,2.30
2017-10-06T15:29:52.409Z,2.03
2017-10-06T15:32:20.722Z,2.00
2017-10-06T15:34:49.810Z,1.83
2017-10-06T15:37:18.149Z,2.03
2017-10-06T15:39:47.229Z,1.97
2017-10-06T15:42:15.534Z,1.93
2017-10-06T15:44:43.854Z,1.83
2017-10-06T15:47:12.938Z,1.90
2017-10-06T15:49:41.252Z,4.13
2017-10-06T15:52:09.554Z,1.93
2017-10-06T15:54:38.638Z,1.50
2017-10-06T15:57:07.707Z,1.67
2017-10-06T15:59:36.051Z,2.83
2017-10-06T16:02:04.354Z,2.17
2017-10-06T16:04:32.649Z,1.90
2017-10-06T16:07:01.002Z,1.90
2017-10-06T16:09:29.303Z,1.83
2017-10-06T16:11:57.626Z,2.77
2017-10-06T16:14:25.938Z,2.13
2017-10-06T16:16:54.259Z,3.30
2017-10-06T16:19:23.338Z,2.63
2017-10-06T16:21:51.645Z,2.57
2017-10-06T16:24:19.953Z,2.27
2017-10-06T16:26:48.317Z,1.77
2017-10-06T16:29:22.617Z,1.90
2017-10-06T16:31:50.942Z,2.17
2017-10-06T16:34:19.243Z,2.30
2017-10-06T16:36:48.557Z,2.00
2017-10-06T16:39:17.634Z,3.63
2017-10-06T16:41:45.933Z,4.53
2017-10-06T16:44:15.009Z,3.90
2017-10-06T16:46:44.090Z,5.73
2017-10-06T16:49:12.425Z,2.70
2017-10-06T16:51:40.729Z,2.83
2017-10-06T16:54:09.077Z,2.50
2017-10-06T16:56:38.130Z,3.43
2017-10-06T16:59:06.484Z,5.93
2017-10-06T17:01:34.799Z,3.27
2017-10-06T17:04:03.899Z,2.53
2017-10-06T17:06:32.974Z,2.67
2017-10-06T17:09:01.315Z,2.47
2017-10-06T17:11:29.622Z,2.60
2017-10-06T17:13:57.929Z,2.70
2017-10-06T17:16:27.010Z,4.07
2017-10-06T17:18:55.319Z,2.87
2017-10-06T17:21:23.642Z,2.90
2017-10-06T17:23:51.945Z,2.80
2017-10-06T17:26:21.023Z,3.13
2017-10-06T17:28:49.341Z,3.50
2017-10-06T17:31:17.656Z,2.50
2017-10-06T17:33:45.962Z,3.67
2017-10-06T17:36:14.262Z,3.60
2017-10-06T17:38:42.668Z,3.97
2017-10-06T17:41:10.973Z,3.07
2017-10-06T17:43:39.293Z,3.33
2017-10-06T17:46:07.645Z,3.60
2017-10-06T17:48:35.965Z,3.87
2017-10-06T17:51:04.269Z,3.70
2017-10-06T17:53:32.594Z,4.37
2017-10-06T17:56:01.666Z,3.80
2017-10-06T17:58:30.054Z,4.90
2017-10-06T18:00:58.366Z,3.60
2017-10-06T18:03:26.736Z,3.80
2017-10-06T18:05:55.048Z,3.83
2017-10-06T18:08:23.363Z,3.37
2017-10-06T18:10:52.468Z,4.20
2017-10-06T18:13:20.775Z,3.70
2017-10-06T18:15:49.102Z,3.83
2017-10-06T18:18:17.414Z,3.50
2017-10-06T18:20:46.501Z,2.70
2017-10-06T18:23:15.575Z,4.20
2017-10-06T18:25:43.897Z,3.83
2017-10-06T18:28:12.210Z,2.80
2017-10-06T18:30:40.544Z,4.07
2017-10-06T18:33:08.874Z,5.00
2017-10-06T18:35:37.184Z,4.00
2017-10-06T18:38:06.266Z,4.20
2017-10-06T18:40:34.569Z,4.13
2017-10-06T18:43:03.649Z,3.93
2017-10-06T18:45:32.726Z,3.57
2017-10-06T18:48:01.052Z,4.53
2017-10-06T18:50:29.349Z,5.00
2017-10-06T18:52:58.462Z,4.43
2017-10-06T18:55:26.784Z,4.60
2017-10-06T18:57:55.889Z,4.57
2017-10-06T19:00:24.198Z,4.63
2017-10-06T19:02:52.506Z,5.37
2017-10-06T19:05:20.830Z,4.60
2017-10-06T19:07:49.133Z,5.43
2017-10-06T19:10:17.464Z,4.80
2017-10-06T19:12:46.529Z,5.37
2017-10-06T19:15:14.849Z,4.93
2017-10-06T19:17:43.158Z,3.70
2017-10-06T19:20:11.474Z,4.93
2017-10-06T19:22:39.789Z,3.20
2017-10-06T19:25:08.139Z,4.00
2017-10-06T19:27:37.201Z,5.63
2017-10-06T19:30:05.526Z,3.80
2017-10-06T19:32:33.843Z,4.70
2017-10-06T19:35:02.162Z,4.80
2017-10-06T19:37:31.254Z,3.37
2017-10-06T19:39:59.573Z,5.07
2017-10-06T19:42:27.896Z,3.90
2017-10-06T19:44:56.202Z,4.53
2017-10-06T19:47:25.289Z,4.50
2017-10-06T19:49:54.374Z,3.93
2017-10-06T19:52:22.711Z,5.10
2017-10-06T19:54:51.018Z,4.50
2017-10-06T19:57:19.334Z,4.37
2017-10-06T19:59:47.662Z,4.70
2017-10-06T20:02:16.707Z,4.30
2017-10-06T20:04:45.066Z,5.20
2017-10-06T20:07:14.167Z,5.77
2017-10-06T20:09:42.485Z,5.70
2017-10-06T20:12:10.801Z,5.60
2017-10-06T20:14:39.131Z,5.20
2017-10-06T20:17:07.445Z,7.87
2017-10-06T20:19:35.783Z,5.93
2017-10-06T20:22:04.094Z,6.33
2017-10-06T20:24:32.398Z,4.50
2017-10-06T20:27:00.711Z,5.50
2017-10-06T20:29:29.018Z,5.50
2017-10-06T20:31:57.345Z,6.17
2017-10-06T20:34:26.411Z,6.93
2017-10-06T20:36:54.762Z,5.60
2017-10-06T20:39:23.066Z,5.67
2017-10-06T20:41:51.386Z,3.80
2017-10-06T20:44:19.686Z,5.60
2017-10-06T20:46:48.045Z,6.10
2017-10-06T20:49:16.349Z,5.07
2017-10-06T20:51:44.663Z,4.43
2017-10-06T20:54:12.973Z,4.60
2017-10-06T20:56:41.314Z,4.47
2017-10-06T20:59:09.622Z,5.10
2017-10-06T21:01:37.927Z,4.60
2017-10-06T21:04:06.248Z,4.27
2017-10-06T21:06:34.558Z,4.80
2017-10-06T21:09:02.870Z,3.77
2017-10-06T21:11:31.207Z,4.70
2017-10-06T21:13:59.530Z,4.50
2017-10-06T21:16:27.838Z,4.20
2017-10-06T21:18:56.925Z,5.27
2017-10-06T21:21:25.238Z,3.40
2017-10-06T21:23:53.550Z,4.00
2017-10-06T21:26:21.863Z,4.23
2017-10-06T21:28:51.781Z,3.97
2017-10-06T21:31:20.850Z,3.47
2017-10-06T21:33:49.154Z,4.70
2017-10-06T21:36:17.470Z,5.10
2017-10-06T21:38:45.783Z,3.87
2017-10-06T21:41:14.114Z,4.60
2017-10-06T21:43:42.423Z,5.30
2017-10-06T21:46:10.759Z,4.70
2017-10-06T21:48:39.837Z,3.80
2017-10-06T21:51:08.938Z,4.20
2017-10-06T21:53:38.011Z,5.27
2017-10-06T21:56:06.359Z,4.17
2017-10-06T21:58:34.671Z,4.60
2017-10-06T22:01:02.989Z,4.03
2017-10-06T22:03:31.331Z,3.30
2017-10-06T22:05:59.643Z,4.80
2017-10-06T22:08:27.979Z,4.37
2017-10-06T22:10:57.069Z,4.70
2017-10-06T22:13:25.390Z,4.67
2017-10-06T22:15:53.689Z,5.43
2017-10-06T22:18:22.010Z,4.90
2017-10-06T22:20:50.312Z,4.80
2017-10-06T22:23:18.642Z,5.20
2017-10-06T22:25:47.723Z,6.43
2017-10-06T22:28:16.057Z,5.40
2017-10-06T22:30:45.139Z,5.07
2017-10-06T22:33:13.442Z,4.03
2017-10-06T22:35:41.758Z,5.00
2017-10-06T22:38:10.837Z,5.47
2017-10-06T22:40:39.147Z,4.80
2017-10-06T22:43:07.473Z,5.77
2017-10-06T22:45:35.806Z,5.53
2017-10-06T22:48:04.115Z,6.30
2017-10-06T22:50:33.201Z,6.10
2017-10-06T22:53:01.493Z,5.60
2017-10-06T22:55:30.560Z,6.77
2017-10-06T22:57:58.862Z,6.50
2017-10-06T23:00:27.938Z,7.47
2017-10-06T23:02:56.269Z,6.77
2017-10-06T23:05:24.569Z,6.53
2017-10-06T23:07:52.876Z,5.83
2017-10-06T23:10:21.945Z,6.13
2017-10-06T23:12:50.256Z,6.90
2017-10-06T23:15:19.325Z,6.17
2017-10-06T23:17:47.648Z,8.10
2017-10-06T23:20:15.952Z,5.10
2017-10-06T23:22:44.264Z,5.50
2017-10-06T23:25:12.580Z,5.90
2017-10-06T23:27:40.932Z,6.50
2017-10-06T23:30:09.996Z,5.40
2017-10-06T23:32:38.292Z,6.23
2017-10-06T23:35:06.609Z,5.50
2017-10-06T23:37:34.919Z,6.10
2017-10-06T23:40:03.235Z,5.40
2017-10-06T23:42:32.317Z,5.50
2017-10-06T23:45:00.625Z,5.50
2017-10-06T23:47:28.934Z,5.10
2017-10-06T23:49:57.244Z,5.67
2017-10-06T23:52:25.542Z,6.20
2017-10-06T23:54:54.616Z,4.70
2017-10-06T23:57:22.918Z,6.33
2017-10-06T23:59:51.984Z,7.13
